sensor_id;sensor_type;location;lat;lon;timestamp;P1;durP1;ratioP1;P2;durP2;ratioP2
34134;SDS011;20410;55.578;12.968;2022-09-09T00:01:06;5.93;;;3.13;;
34134;SDS011;20410;55.578;12.968;2022-09-09T00:03:44;5.37;;;3.23;;
34134;SDS011;20410;55.578;12.968;2022-09-09T00:17:32;4.67;;;3.07;;
34134;SDS011;20410;55.578;12.968;2022-09-09T00:20:12;6.30;;;2.97;;
34134;SDS011;20410;55.578;12.968;2022-09-09T00:22:50;5.17;;;3.30;;
34134;SDS011;20410;55.578;12.968;2022-09-09T00:25:27;5.10;;;3.10;;
34134;SDS011;20410;55.578;12.968;2022-09-09T00:27:59;5.20;;;3.20;;
34134;SDS011;20410;55.578;12.968;2022-09-09T00:30:25;4.10;;;2.90;;
34134;SDS011;20410;55.578;12.968;2022-09-09T00:33:00;5.47;;;3.30;;
34134;SDS011;20410;55.578;12.968;2022-09-09T00:35:37;8.60;;;3.67;;
34134;SDS011;20410;55.578;12.968;2022-09-09T00:41:00;6.47;;;3.30;;
34134;SDS011;20410;55.578;12.968;2022-09-09T00:43:40;7.20;;;3.50;;
34134;SDS011;20410;55.578;12.968;2022-09-09T00:51:59;7.40;;;3.33;;
34134;SDS011;20410;55.578;12.968;2022-09-09T00:57:31;6.57;;;3.20;;
34134;SDS011;20410;55.578;12.968;2022-09-09T01:00:15;8.40;;;3.70;;
34134;SDS011;20410;55.578;12.968;2022-09-09T01:08:09;7.93;;;3.67;;
34134;SDS011;20410;55.578;12.968;2022-09-09T01:10:52;6.27;;;3.10;;
34134;SDS011;20410;55.578;12.968;2022-09-09T01:13:24;7.97;;;3.70;;
34134;SDS011;20410;55.578;12.968;2022-09-09T01:15:55;6.27;;;3.40;;
34134;SDS011;20410;55.578;12.968;2022-09-09T01:18:26;8.37;;;3.60;;
34134;SDS011;20410;55.578;12.968;2022-09-09T01:23:32;10.90;;;3.90;;
34134;SDS011;20410;55.578;12.968;2022-09-09T01:26:19;6.63;;;3.70;;
34134;SDS011;20410;55.578;12.968;2022-09-09T01:28:57;12.87;;;3.80;;
34134;SDS011;20410;55.578;12.968;2022-09-09T01:31:27;9.50;;;4.00;;
34134;SDS011;20410;55.578;12.968;2022-09-09T01:33:56;8.50;;;3.70;;
34134;SDS011;20410;55.578;12.968;2022-09-09T01:36:39;8.07;;;3.73;;
34134;SDS011;20410;55.578;12.968;2022-09-09T01:39:18;9.97;;;3.53;;
34134;SDS011;20410;55.578;12.968;2022-09-09T01:41:45;10.00;;;3.73;;
34134;SDS011;20410;55.578;12.968;2022-09-09T01:44:10;6.40;;;3.73;;
34134;SDS011;20410;55.578;12.968;2022-09-09T01:46:36;10.57;;;4.07;;
34134;SDS011;20410;55.578;12.968;2022-09-09T01:49:02;8.03;;;4.00;;
34134;SDS011;20410;55.578;12.968;2022-09-09T01:51:32;7.20;;;3.73;;
34134;SDS011;20410;55.578;12.968;2022-09-09T01:53:58;8.73;;;4.17;;
34134;SDS011;20410;55.578;12.968;2022-09-09T01:56:43;7.03;;;3.97;;
34134;SDS011;20410;55.578;12.968;2022-09-09T02:02:32;9.47;;;4.50;;
34134;SDS011;20410;55.578;12.968;2022-09-09T02:04:38;11.20;;;5.03;;
34134;SDS011;20410;55.578;12.968;2022-09-09T02:07:29;8.03;;;4.07;;
34134;SDS011;20410;55.578;12.968;2022-09-09T02:12:45;9.00;;;3.90;;
34134;SDS011;20410;55.578;12.968;2022-09-09T02:15:23;8.80;;;4.07;;
34134;SDS011;20410;55.578;12.968;2022-09-09T02:18:14;7.93;;;4.03;;
34134;SDS011;20410;55.578;12.968;2022-09-09T02:20:48;8.93;;;3.67;;
34134;SDS011;20410;55.578;12.968;2022-09-09T02:23:14;7.27;;;3.80;;
34134;SDS011;20410;55.578;12.968;2022-09-09T02:25:40;8.13;;;3.80;;
34134;SDS011;20410;55.578;12.968;2022-09-09T02:28:09;7.80;;;3.93;;
34134;SDS011;20410;55.578;12.968;2022-09-09T02:30:37;9.47;;;4.27;;
34134;SDS011;20410;55.578;12.968;2022-09-09T02:33:05;9.00;;;4.23;;
34134;SDS011;20410;55.578;12.968;2022-09-09T02:35:35;7.50;;;4.13;;
34134;SDS011;20410;55.578;12.968;2022-09-09T02:38:03;6.60;;;3.70;;
34134;SDS011;20410;55.578;12.968;2022-09-09T02:40:33;7.60;;;3.90;;
34134;SDS011;20410;55.578;12.968;2022-09-09T02:42:58;8.10;;;3.87;;
34134;SDS011;20410;55.578;12.968;2022-09-09T02:45:31;7.83;;;3.97;;
34134;SDS011;20410;55.578;12.968;2022-09-09T02:48:08;9.63;;;3.90;;
34134;SDS011;20410;55.578;12.968;2022-09-09T02:51:08;5.67;;;3.60;;
34134;SDS011;20410;55.578;12.968;2022-09-09T02:54:10;7.63;;;3.83;;
34134;SDS011;20410;55.578;12.968;2022-09-09T02:56:51;9.80;;;4.30;;
34134;SDS011;20410;55.578;12.968;2022-09-09T02:59:21;7.33;;;4.07;;
34134;SDS011;20410;55.578;12.968;2022-09-09T03:01:49;7.17;;;4.13;;
34134;SDS011;20410;55.578;12.968;2022-09-09T03:04:14;7.53;;;3.93;;
34134;SDS011;20410;55.578;12.968;2022-09-09T03:06:40;9.80;;;3.83;;
34134;SDS011;20410;55.578;12.968;2022-09-09T03:09:05;8.10;;;4.13;;
34134;SDS011;20410;55.578;12.968;2022-09-09T03:11:32;7.87;;;3.87;;
34134;SDS011;20410;55.578;12.968;2022-09-09T03:13:58;12.37;;;4.17;;
34134;SDS011;20410;55.578;12.968;2022-09-09T03:16:24;7.27;;;3.87;;
34134;SDS011;20410;55.578;12.968;2022-09-09T03:18:49;6.53;;;3.90;;
34134;SDS011;20410;55.578;12.968;2022-09-09T03:21:15;10.43;;;4.03;;
34134;SDS011;20410;55.578;12.968;2022-09-09T03:23:41;13.23;;;4.13;;
34134;SDS011;20410;55.578;12.968;2022-09-09T03:26:07;7.53;;;4.33;;
34134;SDS011;20410;55.578;12.968;2022-09-09T03:28:33;7.57;;;4.60;;
34134;SDS011;20410;55.578;12.968;2022-09-09T03:31:02;8.00;;;4.20;;
34134;SDS011;20410;55.578;12.968;2022-09-09T03:33:30;9.83;;;4.73;;
34134;SDS011;20410;55.578;12.968;2022-09-09T03:35:56;10.37;;;4.17;;
34134;SDS011;20410;55.578;12.968;2022-09-09T03:38:25;9.97;;;4.40;;
34134;SDS011;20410;55.578;12.968;2022-09-09T03:40:52;7.73;;;4.67;;
34134;SDS011;20410;55.578;12.968;2022-09-09T03:43:20;10.50;;;4.63;;
34134;SDS011;20410;55.578;12.968;2022-09-09T03:45:46;11.57;;;5.03;;
34134;SDS011;20410;55.578;12.968;2022-09-09T03:48:13;6.93;;;4.47;;
34134;SDS011;20410;55.578;12.968;2022-09-09T03:50:43;8.53;;;4.50;;
34134;SDS011;20410;55.578;12.968;2022-09-09T03:53:10;7.43;;;4.73;;
34134;SDS011;20410;55.578;12.968;2022-09-09T03:55:35;9.57;;;4.80;;
34134;SDS011;20410;55.578;12.968;2022-09-09T03:58:01;11.23;;;5.07;;
34134;SDS011;20410;55.578;12.968;2022-09-09T04:00:27;10.37;;;4.67;;
34134;SDS011;20410;55.578;12.968;2022-09-09T04:02:53;7.97;;;4.30;;
34134;SDS011;20410;55.578;12.968;2022-09-09T04:05:21;8.30;;;4.90;;
34134;SDS011;20410;55.578;12.968;2022-09-09T04:07:47;9.87;;;4.70;;
34134;SDS011;20410;55.578;12.968;2022-09-09T04:10:12;7.47;;;4.73;;
34134;SDS011;20410;55.578;12.968;2022-09-09T04:12:38;6.33;;;4.33;;
34134;SDS011;20410;55.578;12.968;2022-09-09T04:15:04;10.50;;;4.50;;
34134;SDS011;20410;55.578;12.968;2022-09-09T04:17:30;5.73;;;4.27;;
34134;SDS011;20410;55.578;12.968;2022-09-09T04:19:56;6.50;;;3.93;;
34134;SDS011;20410;55.578;12.968;2022-09-09T04:22:22;7.43;;;4.60;;
34134;SDS011;20410;55.578;12.968;2022-09-09T04:24:48;7.20;;;4.40;;
34134;SDS011;20410;55.578;12.968;2022-09-09T04:27:13;5.63;;;4.30;;
34134;SDS011;20410;55.578;12.968;2022-09-09T04:29:39;9.17;;;3.93;;
34134;SDS011;20410;55.578;12.968;2022-09-09T04:32:04;4.77;;;3.90;;
34134;SDS011;20410;55.578;12.968;2022-09-09T04:34:30;8.17;;;4.67;;
34134;SDS011;20410;55.578;12.968;2022-09-09T04:36:56;8.97;;;4.10;;
34134;SDS011;20410;55.578;12.968;2022-09-09T04:39:22;5.50;;;3.67;;
34134;SDS011;20410;55.578;12.968;2022-09-09T04:41:47;4.53;;;3.87;;
34134;SDS011;20410;55.578;12.968;2022-09-09T04:44:13;4.73;;;4.17;;
34134;SDS011;20410;55.578;12.968;2022-09-09T04:46:39;5.47;;;3.90;;
34134;SDS011;20410;55.578;12.968;2022-09-09T04:49:06;5.17;;;4.13;;
34134;SDS011;20410;55.578;12.968;2022-09-09T04:51:32;4.77;;;4.10;;
34134;SDS011;20410;55.578;12.968;2022-09-09T04:53:57;6.27;;;4.20;;
34134;SDS011;20410;55.578;12.968;2022-09-09T04:56:23;6.37;;;4.03;;
34134;SDS011;20410;55.578;12.968;2022-09-09T04:58:51;4.70;;;4.03;;
34134;SDS011;20410;55.578;12.968;2022-09-09T05:01:18;5.73;;;4.47;;
34134;SDS011;20410;55.578;12.968;2022-09-09T05:03:46;5.83;;;4.33;;
34134;SDS011;20410;55.578;12.968;2022-09-09T05:06:16;6.47;;;4.40;;
34134;SDS011;20410;55.578;12.968;2022-09-09T05:08:43;6.37;;;4.33;;
34134;SDS011;20410;55.578;12.968;2022-09-09T05:11:19;5.70;;;4.40;;
34134;SDS011;20410;55.578;12.968;2022-09-09T05:13:47;5.17;;;4.37;;
34134;SDS011;20410;55.578;12.968;2022-09-09T05:16:14;5.07;;;4.53;;
34134;SDS011;20410;55.578;12.968;2022-09-09T05:18:41;6.73;;;4.80;;
34134;SDS011;20410;55.578;12.968;2022-09-09T05:21:11;7.00;;;4.60;;
34134;SDS011;20410;55.578;12.968;2022-09-09T05:23:38;6.23;;;4.67;;
34134;SDS011;20410;55.578;12.968;2022-09-09T05:26:03;6.57;;;5.10;;
34134;SDS011;20410;55.578;12.968;2022-09-09T05:28:30;8.50;;;4.53;;
34134;SDS011;20410;55.578;12.968;2022-09-09T05:30:58;7.27;;;4.40;;
34134;SDS011;20410;55.578;12.968;2022-09-09T05:33:25;7.27;;;5.37;;
34134;SDS011;20410;55.578;12.968;2022-09-09T05:35:56;6.47;;;5.07;;
34134;SDS011;20410;55.578;12.968;2022-09-09T05:38:33;7.77;;;5.40;;
34134;SDS011;20410;55.578;12.968;2022-09-09T05:40:59;8.83;;;5.00;;
34134;SDS011;20410;55.578;12.968;2022-09-09T05:43:26;8.83;;;5.53;;
34134;SDS011;20410;55.578;12.968;2022-09-09T05:45:59;8.30;;;5.70;;
34134;SDS011;20410;55.578;12.968;2022-09-09T05:48:30;9.13;;;5.60;;
34134;SDS011;20410;55.578;12.968;2022-09-09T05:50:57;7.77;;;5.57;;
34134;SDS011;20410;55.578;12.968;2022-09-09T05:53:24;7.07;;;5.07;;
34134;SDS011;20410;55.578;12.968;2022-09-09T05:55:57;6.57;;;4.50;;
34134;SDS011;20410;55.578;12.968;2022-09-09T05:58:24;7.87;;;4.63;;
34134;SDS011;20410;55.578;12.968;2022-09-09T06:00:50;6.07;;;4.57;;
34134;SDS011;20410;55.578;12.968;2022-09-09T06:03:16;8.57;;;5.20;;
34134;SDS011;20410;55.578;12.968;2022-09-09T06:05:42;6.67;;;4.70;;
34134;SDS011;20410;55.578;12.968;2022-09-09T06:08:07;9.60;;;4.97;;
34134;SDS011;20410;55.578;12.968;2022-09-09T06:10:33;8.43;;;4.90;;
34134;SDS011;20410;55.578;12.968;2022-09-09T06:12:59;6.57;;;4.50;;
34134;SDS011;20410;55.578;12.968;2022-09-09T06:15:25;6.57;;;4.57;;
34134;SDS011;20410;55.578;12.968;2022-09-09T06:17:55;6.80;;;4.27;;
34134;SDS011;20410;55.578;12.968;2022-09-09T06:20:21;5.80;;;3.90;;
34134;SDS011;20410;55.578;12.968;2022-09-09T06:22:47;5.50;;;4.00;;
34134;SDS011;20410;55.578;12.968;2022-09-09T06:25:13;7.33;;;4.30;;
34134;SDS011;20410;55.578;12.968;2022-09-09T06:27:39;6.10;;;4.40;;
34134;SDS011;20410;55.578;12.968;2022-09-09T06:30:05;7.23;;;4.30;;
34134;SDS011;20410;55.578;12.968;2022-09-09T06:32:32;6.33;;;4.53;;
34134;SDS011;20410;55.578;12.968;2022-09-09T06:34:59;9.70;;;4.60;;
34134;SDS011;20410;55.578;12.968;2022-09-09T06:37:26;6.93;;;4.53;;
34134;SDS011;20410;55.578;12.968;2022-09-09T06:39:52;8.73;;;4.60;;
34134;SDS011;20410;55.578;12.968;2022-09-09T06:42:19;8.40;;;4.43;;
34134;SDS011;20410;55.578;12.968;2022-09-09T06:44:45;9.27;;;4.40;;
34134;SDS011;20410;55.578;12.968;2022-09-09T06:47:10;8.30;;;4.70;;
34134;SDS011;20410;55.578;12.968;2022-09-09T06:49:36;8.03;;;4.23;;
34134;SDS011;20410;55.578;12.968;2022-09-09T06:52:01;9.17;;;5.10;;
34134;SDS011;20410;55.578;12.968;2022-09-09T06:54:27;6.97;;;4.37;;
34134;SDS011;20410;55.578;12.968;2022-09-09T06:56:53;5.50;;;3.50;;
34134;SDS011;20410;55.578;12.968;2022-09-09T06:59:19;8.10;;;4.87;;
34134;SDS011;20410;55.578;12.968;2022-09-09T07:01:44;5.83;;;4.10;;
34134;SDS011;20410;55.578;12.968;2022-09-09T07:04:11;6.03;;;4.07;;
34134;SDS011;20410;55.578;12.968;2022-09-09T07:06:40;7.37;;;4.30;;
34134;SDS011;20410;55.578;12.968;2022-09-09T07:09:12;6.47;;;3.90;;
34134;SDS011;20410;55.578;12.968;2022-09-09T07:11:42;6.03;;;4.00;;
34134;SDS011;20410;55.578;12.968;2022-09-09T07:14:10;6.33;;;4.00;;
34134;SDS011;20410;55.578;12.968;2022-09-09T07:16:39;6.83;;;3.87;;
34134;SDS011;20410;55.578;12.968;2022-09-09T07:19:09;6.87;;;3.70;;
34134;SDS011;20410;55.578;12.968;2022-09-09T07:21:36;5.43;;;3.80;;
34134;SDS011;20410;55.578;12.968;2022-09-09T07:24:01;6.00;;;3.90;;
34134;SDS011;20410;55.578;12.968;2022-09-09T07:26:28;7.40;;;3.97;;
34134;SDS011;20410;55.578;12.968;2022-09-09T07:28:55;4.70;;;3.60;;
34134;SDS011;20410;55.578;12.968;2022-09-09T07:31:23;4.50;;;3.63;;
34134;SDS011;20410;55.578;12.968;2022-09-09T07:33:51;7.47;;;3.53;;
34134;SDS011;20410;55.578;12.968;2022-09-09T07:36:24;5.23;;;3.63;;
34134;SDS011;20410;55.578;12.968;2022-09-09T07:39:16;4.87;;;3.83;;
34134;SDS011;20410;55.578;12.968;2022-09-09T07:41:43;5.60;;;3.90;;
34134;SDS011;20410;55.578;12.968;2022-09-09T07:44:15;5.43;;;3.90;;
34134;SDS011;20410;55.578;12.968;2022-09-09T07:46:42;5.13;;;3.77;;
34134;SDS011;20410;55.578;12.968;2022-09-09T07:49:10;6.90;;;4.00;;
34134;SDS011;20410;55.578;12.968;2022-09-09T07:51:37;6.45;;;4.57;;
34134;SDS011;20410;55.578;12.968;2022-09-09T07:54:06;6.60;;;4.53;;
34134;SDS011;20410;55.578;12.968;2022-09-09T07:56:37;4.50;;;4.10;;
34134;SDS011;20410;55.578;12.968;2022-09-09T07:59:04;5.90;;;4.17;;
34134;SDS011;20410;55.578;12.968;2022-09-09T08:01:35;6.47;;;4.80;;
34134;SDS011;20410;55.578;12.968;2022-09-09T08:04:05;12.07;;;5.10;;
34134;SDS011;20410;55.578;12.968;2022-09-09T08:06:33;5.23;;;4.53;;
34134;SDS011;20410;55.578;12.968;2022-09-09T08:09:02;5.93;;;4.20;;
34134;SDS011;20410;55.578;12.968;2022-09-09T08:11:28;6.20;;;4.85;;
34134;SDS011;20410;55.578;12.968;2022-09-09T08:13:55;5.70;;;4.35;;
34134;SDS011;20410;55.578;12.968;2022-09-09T08:16:23;7.00;;;4.40;;
34134;SDS011;20410;55.578;12.968;2022-09-09T08:18:53;7.32;;;4.90;;
34134;SDS011;20410;55.578;12.968;2022-09-09T08:21:21;6.15;;;5.03;;
34134;SDS011;20410;55.578;12.968;2022-09-09T08:23:49;5.27;;;4.77;;
34134;SDS011;20410;55.578;12.968;2022-09-09T08:26:21;6.72;;;5.30;;
34134;SDS011;20410;55.578;12.968;2022-09-09T08:28:48;6.65;;;5.10;;
34134;SDS011;20410;55.578;12.968;2022-09-09T08:31:17;5.93;;;4.70;;
34134;SDS011;20410;55.578;12.968;2022-09-09T08:33:47;6.30;;;4.30;;
34134;SDS011;20410;55.578;12.968;2022-09-09T08:36:14;5.72;;;4.20;;
34134;SDS011;20410;55.578;12.968;2022-09-09T08:38:51;5.15;;;4.50;;
34134;SDS011;20410;55.578;12.968;2022-09-09T08:49:18;4.88;;;3.85;;
34134;SDS011;20410;55.578;12.968;2022-09-09T08:51:56;4.75;;;3.88;;
34134;SDS011;20410;55.578;12.968;2022-09-09T08:54:22;3.63;;;3.30;;
34134;SDS011;20410;55.578;12.968;2022-09-09T08:56:48;5.00;;;3.65;;
34134;SDS011;20410;55.578;12.968;2022-09-09T08:59:16;4.13;;;3.72;;
34134;SDS011;20410;55.578;12.968;2022-09-09T09:04:29;3.45;;;2.60;;
34134;SDS011;20410;55.578;12.968;2022-09-09T09:12:45;2.47;;;2.05;;
34134;SDS011;20410;55.578;12.968;2022-09-09T09:15:25;2.95;;;2.28;;
34134;SDS011;20410;55.578;12.968;2022-09-09T09:17:55;4.53;;;2.20;;
34134;SDS011;20410;55.578;12.968;2022-09-09T09:20:23;2.20;;;2.00;;
34134;SDS011;20410;55.578;12.968;2022-09-09T09:23:03;2.08;;;1.80;;
34134;SDS011;20410;55.578;12.968;2022-09-09T09:25:34;1.88;;;1.70;;
34134;SDS011;20410;55.578;12.968;2022-09-09T09:28:12;1.48;;;1.38;;
34134;SDS011;20410;55.578;12.968;2022-09-09T09:30:43;1.60;;;1.50;;
34134;SDS011;20410;55.578;12.968;2022-09-09T09:35:42;1.73;;;1.60;;
34134;SDS011;20410;55.578;12.968;2022-09-09T09:38:18;2.35;;;2.10;;
34134;SDS011;20410;55.578;12.968;2022-09-09T09:40:51;2.28;;;1.90;;
34134;SDS011;20410;55.578;12.968;2022-09-09T09:43:22;1.70;;;1.60;;
34134;SDS011;20410;55.578;12.968;2022-09-09T09:45:54;1.70;;;1.60;;
34134;SDS011;20410;55.578;12.968;2022-09-09T09:48:20;1.90;;;1.80;;
34134;SDS011;20410;55.578;12.968;2022-09-09T09:50:46;1.95;;;1.85;;
34134;SDS011;20410;55.578;12.968;2022-09-09T09:53:18;2.28;;;2.08;;
34134;SDS011;20410;55.578;12.968;2022-09-09T09:55:59;2.28;;;2.08;;
34134;SDS011;20410;55.578;12.968;2022-09-09T09:58:27;2.45;;;2.22;;
34134;SDS011;20410;55.578;12.968;2022-09-09T10:00:58;3.60;;;2.40;;
34134;SDS011;20410;55.578;12.968;2022-09-09T10:03:26;2.40;;;2.20;;
34134;SDS011;20410;55.578;12.968;2022-09-09T10:05:58;2.00;;;1.80;;
34134;SDS011;20410;55.578;12.968;2022-09-09T10:08:24;1.92;;;1.73;;
34134;SDS011;20410;55.578;12.968;2022-09-09T10:13:48;4.88;;;1.85;;
34134;SDS011;20410;55.578;12.968;2022-09-09T10:16:45;2.35;;;1.90;;
34134;SDS011;20410;55.578;12.968;2022-09-09T10:19:30;1.98;;;1.77;;
34134;SDS011;20410;55.578;12.968;2022-09-09T10:22:08;4.93;;;2.20;;
34134;SDS011;20410;55.578;12.968;2022-09-09T10:25:05;3.45;;;2.00;;
34134;SDS011;20410;55.578;12.968;2022-09-09T10:33:36;4.18;;;3.78;;
34134;SDS011;20410;55.578;12.968;2022-09-09T10:36:16;4.30;;;3.90;;
34134;SDS011;20410;55.578;12.968;2022-09-09T10:38:47;4.70;;;4.30;;
34134;SDS011;20410;55.578;12.968;2022-09-09T10:55:00;4.35;;;3.95;;
34134;SDS011;20410;55.578;12.968;2022-09-09T11:00:15;4.88;;;4.47;;
34134;SDS011;20410;55.578;12.968;2022-09-09T11:03:14;5.22;;;4.68;;
34134;SDS011;20410;55.578;12.968;2022-09-09T11:05:52;9.25;;;5.50;;
34134;SDS011;20410;55.578;12.968;2022-09-09T11:08:29;7.68;;;6.80;;
34134;SDS011;20410;55.578;12.968;2022-09-09T11:16:01;9.07;;;7.53;;
34134;SDS011;20410;55.578;12.968;2022-09-09T11:18:37;8.55;;;7.75;;
34134;SDS011;20410;55.578;12.968;2022-09-09T11:21:07;8.52;;;7.63;;
34134;SDS011;20410;55.578;12.968;2022-09-09T11:23:43;9.00;;;7.35;;
34134;SDS011;20410;55.578;12.968;2022-09-09T11:26:17;8.57;;;7.80;;
34134;SDS011;20410;55.578;12.968;2022-09-09T11:29:08;9.07;;;7.68;;
34134;SDS011;20410;55.578;12.968;2022-09-09T11:31:46;8.27;;;7.47;;
34134;SDS011;20410;55.578;12.968;2022-09-09T11:40:19;7.80;;;6.72;;
34134;SDS011;20410;55.578;12.968;2022-09-09T11:43:00;8.10;;;7.40;;
34134;SDS011;20410;55.578;12.968;2022-09-09T11:45:40;7.55;;;6.80;;
34134;SDS011;20410;55.578;12.968;2022-09-09T11:48:22;8.88;;;7.97;;
34134;SDS011;20410;55.578;12.968;2022-09-09T11:51:36;8.20;;;7.40;;
34134;SDS011;20410;55.578;12.968;2022-09-09T11:56:23;7.55;;;6.85;;
34134;SDS011;20410;55.578;12.968;2022-09-09T12:06:59;8.20;;;7.43;;
34134;SDS011;20410;55.578;12.968;2022-09-09T12:12:07;7.10;;;6.50;;
34134;SDS011;20410;55.578;12.968;2022-09-09T12:14:58;10.50;;;7.70;;
34134;SDS011;20410;55.578;12.968;2022-09-09T12:17:43;7.30;;;6.40;;
34134;SDS011;20410;55.578;12.968;2022-09-09T12:20:12;7.28;;;6.22;;
34134;SDS011;20410;55.578;12.968;2022-09-09T12:33:37;6.03;;;5.43;;
34134;SDS011;20410;55.578;12.968;2022-09-09T12:36:10;5.70;;;5.20;;
34134;SDS011;20410;55.578;12.968;2022-09-09T12:38:58;6.43;;;5.43;;
34134;SDS011;20410;55.578;12.968;2022-09-09T12:41:35;6.30;;;5.68;;
34134;SDS011;20410;55.578;12.968;2022-09-09T12:44:08;5.97;;;5.32;;
34134;SDS011;20410;55.578;12.968;2022-09-09T12:46:36;6.45;;;5.25;;
34134;SDS011;20410;55.578;12.968;2022-09-09T12:51:56;6.32;;;5.18;;
34134;SDS011;20410;55.578;12.968;2022-09-09T12:54:22;5.82;;;5.32;;
34134;SDS011;20410;55.578;12.968;2022-09-09T12:56:48;6.00;;;5.40;;
34134;SDS011;20410;55.578;12.968;2022-09-09T12:59:25;7.63;;;5.53;;
34134;SDS011;20410;55.578;12.968;2022-09-09T13:01:58;5.15;;;4.75;;
34134;SDS011;20410;55.578;12.968;2022-09-09T13:04:23;5.35;;;4.85;;
34134;SDS011;20410;55.578;12.968;2022-09-09T13:06:49;6.28;;;5.50;;
34134;SDS011;20410;55.578;12.968;2022-09-09T13:09:17;6.28;;;4.80;;
34134;SDS011;20410;55.578;12.968;2022-09-09T13:11:44;5.70;;;5.20;;
34134;SDS011;20410;55.578;12.968;2022-09-09T13:14:31;7.00;;;4.50;;
34134;SDS011;20410;55.578;12.968;2022-09-09T13:17:00;5.40;;;4.90;;
34134;SDS011;20410;55.578;12.968;2022-09-09T13:19:37;5.95;;;4.85;;
34134;SDS011;20410;55.578;12.968;2022-09-09T13:22:14;6.03;;;4.85;;
34134;SDS011;20410;55.578;12.968;2022-09-09T13:27:37;8.32;;;6.32;;
34134;SDS011;20410;55.578;12.968;2022-09-09T13:30:20;8.93;;;6.60;;
34134;SDS011;20410;55.578;12.968;2022-09-09T13:32:48;5.95;;;5.35;;
34134;SDS011;20410;55.578;12.968;2022-09-09T13:35:26;5.47;;;4.75;;
34134;SDS011;20410;55.578;12.968;2022-09-09T13:37:52;4.90;;;4.22;;
34134;SDS011;20410;55.578;12.968;2022-09-09T13:40:19;5.22;;;4.40;;
34134;SDS011;20410;55.578;12.968;2022-09-09T13:42:47;4.65;;;4.10;;
34134;SDS011;20410;55.578;12.968;2022-09-09T13:45:20;3.92;;;3.60;;
34134;SDS011;20410;55.578;12.968;2022-09-09T13:47:47;5.43;;;3.83;;
34134;SDS011;20410;55.578;12.968;2022-09-09T13:52:51;4.43;;;3.70;;
34134;SDS011;20410;55.578;12.968;2022-09-09T13:55:18;6.88;;;3.38;;
34134;SDS011;20410;55.578;12.968;2022-09-09T13:57:50;5.70;;;3.75;;
34134;SDS011;20410;55.578;12.968;2022-09-09T14:00:23;4.00;;;3.20;;
34134;SDS011;20410;55.578;12.968;2022-09-09T14:02:51;3.80;;;3.03;;
34134;SDS011;20410;55.578;12.968;2022-09-09T14:05:19;3.50;;;3.05;;
34134;SDS011;20410;55.578;12.968;2022-09-09T14:07:47;3.42;;;3.13;;
34134;SDS011;20410;55.578;12.968;2022-09-09T14:10:14;3.90;;;3.50;;
34134;SDS011;20410;55.578;12.968;2022-09-09T14:12:40;4.63;;;3.80;;
34134;SDS011;20410;55.578;12.968;2022-09-09T14:15:06;3.75;;;3.40;;
34134;SDS011;20410;55.578;12.968;2022-09-09T14:17:33;3.35;;;3.05;;
34134;SDS011;20410;55.578;12.968;2022-09-09T14:20:01;8.25;;;3.65;;
34134;SDS011;20410;55.578;12.968;2022-09-09T14:22:34;4.18;;;2.90;;
34134;SDS011;20410;55.578;12.968;2022-09-09T14:25:01;3.47;;;3.17;;
34134;SDS011;20410;55.578;12.968;2022-09-09T14:27:27;4.85;;;3.08;;
34134;SDS011;20410;55.578;12.968;2022-09-09T14:29:53;3.97;;;3.38;;
34134;SDS011;20410;55.578;12.968;2022-09-09T14:32:19;3.95;;;2.63;;
34134;SDS011;20410;55.578;12.968;2022-09-09T14:34:45;4.28;;;2.88;;
34134;SDS011;20410;55.578;12.968;2022-09-09T14:37:10;4.15;;;3.58;;
34134;SDS011;20410;55.578;12.968;2022-09-09T14:39:36;4.20;;;3.80;;
34134;SDS011;20410;55.578;12.968;2022-09-09T14:42:02;4.97;;;3.90;;
34134;SDS011;20410;55.578;12.968;2022-09-09T14:44:28;4.88;;;3.80;;
34134;SDS011;20410;55.578;12.968;2022-09-09T14:46:54;5.45;;;4.07;;
34134;SDS011;20410;55.578;12.968;2022-09-09T14:49:19;3.58;;;3.28;;
34134;SDS011;20410;55.578;12.968;2022-09-09T14:51:45;4.20;;;3.80;;
34134;SDS011;20410;55.578;12.968;2022-09-09T14:54:10;4.20;;;3.80;;
34134;SDS011;20410;55.578;12.968;2022-09-09T14:56:36;4.65;;;3.90;;
34134;SDS011;20410;55.578;12.968;2022-09-09T14:59:03;4.70;;;3.67;;
34134;SDS011;20410;55.578;12.968;2022-09-09T15:01:29;4.93;;;4.10;;
34134;SDS011;20410;55.578;12.968;2022-09-09T15:04:00;6.18;;;3.70;;
34134;SDS011;20410;55.578;12.968;2022-09-09T15:06:28;5.40;;;3.47;;
34134;SDS011;20410;55.578;12.968;2022-09-09T15:08:56;4.88;;;3.53;;
34134;SDS011;20410;55.578;12.968;2022-09-09T15:11:29;4.85;;;3.70;;
34134;SDS011;20410;55.578;12.968;2022-09-09T15:13:58;4.82;;;3.50;;
34134;SDS011;20410;55.578;12.968;2022-09-09T15:16:24;4.47;;;3.97;;
34134;SDS011;20410;55.578;12.968;2022-09-09T15:18:54;4.68;;;3.80;;
34134;SDS011;20410;55.578;12.968;2022-09-09T15:21:23;4.07;;;3.45;;
34134;SDS011;20410;55.578;12.968;2022-09-09T15:23:51;6.47;;;3.55;;
34134;SDS011;20410;55.578;12.968;2022-09-09T15:26:17;4.25;;;3.40;;
34134;SDS011;20410;55.578;12.968;2022-09-09T15:28:44;6.28;;;3.85;;
34134;SDS011;20410;55.578;12.968;2022-09-09T15:31:13;6.53;;;4.05;;
34134;SDS011;20410;55.578;12.968;2022-09-09T15:33:46;5.75;;;4.30;;
34134;SDS011;20410;55.578;12.968;2022-09-09T15:36:17;7.03;;;4.55;;
34134;SDS011;20410;55.578;12.968;2022-09-09T15:38:43;6.55;;;4.22;;
34134;SDS011;20410;55.578;12.968;2022-09-09T15:41:09;6.47;;;4.38;;
34134;SDS011;20410;55.578;12.968;2022-09-09T15:43:35;5.82;;;4.25;;
34134;SDS011;20410;55.578;12.968;2022-09-09T15:46:23;6.85;;;4.60;;
34134;SDS011;20410;55.578;12.968;2022-09-09T15:48:51;6.65;;;4.30;;
34134;SDS011;20410;55.578;12.968;2022-09-09T15:51:17;5.82;;;4.40;;
34134;SDS011;20410;55.578;12.968;2022-09-09T15:53:43;5.18;;;4.55;;
34134;SDS011;20410;55.578;12.968;2022-09-09T15:56:10;4.85;;;4.28;;
34134;SDS011;20410;55.578;12.968;2022-09-09T15:58:36;7.03;;;4.70;;
34134;SDS011;20410;55.578;12.968;2022-09-09T16:01:05;6.10;;;4.80;;
34134;SDS011;20410;55.578;12.968;2022-09-09T16:03:35;5.53;;;5.03;;
34134;SDS011;20410;55.578;12.968;2022-09-09T16:06:03;5.90;;;4.75;;
34134;SDS011;20410;55.578;12.968;2022-09-09T16:08:38;6.15;;;4.78;;
34134;SDS011;20410;55.578;12.968;2022-09-09T16:11:08;6.32;;;4.68;;
34134;SDS011;20410;55.578;12.968;2022-09-09T16:13:38;5.38;;;4.50;;
34134;SDS011;20410;55.578;12.968;2022-09-09T16:16:04;7.18;;;4.40;;
34134;SDS011;20410;55.578;12.968;2022-09-09T16:18:35;4.63;;;4.03;;
34134;SDS011;20410;55.578;12.968;2022-09-09T16:21:02;4.55;;;4.15;;
34134;SDS011;20410;55.578;12.968;2022-09-09T16:23:29;5.18;;;4.68;;
34134;SDS011;20410;55.578;12.968;2022-09-09T16:25:56;5.10;;;4.60;;
34134;SDS011;20410;55.578;12.968;2022-09-09T16:28:21;5.47;;;4.85;;
34134;SDS011;20410;55.578;12.968;2022-09-09T16:30:47;5.78;;;5.15;;
34134;SDS011;20410;55.578;12.968;2022-09-09T16:33:13;5.38;;;4.88;;
34134;SDS011;20410;55.578;12.968;2022-09-09T16:35:41;6.40;;;4.90;;
34134;SDS011;20410;55.578;12.968;2022-09-09T16:38:07;5.55;;;4.80;;
34134;SDS011;20410;55.578;12.968;2022-09-09T16:40:36;8.40;;;5.00;;
34134;SDS011;20410;55.578;12.968;2022-09-09T16:43:03;6.38;;;4.70;;
34134;SDS011;20410;55.578;12.968;2022-09-09T16:45:30;5.50;;;4.13;;
34134;SDS011;20410;55.578;12.968;2022-09-09T16:47:57;6.88;;;5.45;;
34134;SDS011;20410;55.578;12.968;2022-09-09T16:50:24;6.22;;;4.80;;
34134;SDS011;20410;55.578;12.968;2022-09-09T16:52:51;6.07;;;4.85;;
34134;SDS011;20410;55.578;12.968;2022-09-09T16:55:17;5.30;;;4.65;;